createdAt,value
2019-04-22T00:03:49.759Z,5.40
2019-04-22T00:08:25.039Z,4.53
2019-04-22T00:12:48.078Z,4.00
2019-04-22T00:17:13.330Z,4.57
2019-04-22T00:21:19.838Z,5.00
2019-04-22T00:25:42.053Z,5.60
2019-04-22T00:30:07.315Z,4.93
2019-04-22T00:34:09.615Z,4.43
2019-04-22T00:38:38.689Z,4.47
2019-04-22T00:42:53.058Z,5.03
2019-04-22T00:47:20.855Z,4.93
2019-04-22T00:51:36.521Z,5.43
2019-04-22T00:56:00.613Z,5.37
2019-04-22T01:00:21.379Z,5.00
2019-04-22T01:04:40.688Z,6.17
2019-04-22T01:09:00.318Z,5.73
2019-04-22T01:13:14.191Z,4.00
2019-04-22T01:17:34.354Z,4.90
2019-04-22T01:21:52.476Z,4.70
2019-04-22T01:26:13.960Z,5.37
2019-04-22T01:30:27.902Z,4.43
2019-04-22T01:34:51.418Z,3.50
2019-04-22T01:39:16.383Z,4.60
2019-04-22T01:43:44.101Z,4.30
2019-04-22T01:48:00.519Z,3.33
2019-04-22T01:52:18.664Z,3.10
2019-04-22T01:56:33.353Z,3.90
2019-04-22T02:00:56.234Z,3.33
2019-04-22T02:05:15.681Z,3.67
2019-04-22T02:13:49.558Z,5.13
2019-04-22T02:18:18.064Z,4.90
2019-04-22T02:22:41.754Z,4.63
2019-04-22T02:35:45.933Z,4.00
2019-04-22T02:39:48.946Z,3.70
2019-04-22T02:44:08.231Z,3.53
2019-04-22T02:48:40.156Z,3.33
2019-04-22T02:52:45.309Z,4.10
2019-04-22T02:57:03.367Z,3.63
2019-04-22T03:05:47.147Z,3.63
2019-04-22T03:09:59.472Z,3.40
2019-04-22T03:14:11.543Z,3.57
2019-04-22T03:18:46.851Z,3.77
2019-04-22T03:22:57.908Z,4.40
2019-04-22T03:27:09.657Z,4.30
2019-04-22T03:36:42.807Z,3.37
2019-04-22T03:40:46.463Z,4.30
2019-04-22T03:45:10.199Z,3.20
2019-04-22T03:49:17.683Z,3.77
2019-04-22T03:53:21.215Z,3.90
2019-04-22T03:57:50.222Z,2.70
2019-04-22T04:02:03.539Z,3.47
2019-04-22T04:06:31.726Z,2.83
2019-04-22T04:10:45.526Z,4.20
2019-04-22T04:15:06.073Z,4.23
2019-04-22T04:19:27.784Z,4.93
2019-04-22T04:32:29.960Z,3.60
2019-04-22T04:36:37.074Z,3.90
2019-04-22T04:40:57.508Z,3.80
2019-04-22T04:58:13.472Z,4.20
2019-04-22T05:02:33.119Z,5.07
2019-04-22T05:06:51.782Z,4.07
2019-04-22T05:15:27.720Z,3.50
2019-04-22T05:19:33.403Z,4.07
2019-04-22T05:24:00.958Z,7.40
2019-04-22T05:28:10.393Z,7.10
2019-04-22T05:32:35.858Z,6.17
2019-04-22T05:36:48.050Z,4.63
2019-04-22T05:41:02.632Z,3.70
2019-04-22T05:49:41.721Z,5.30
2019-04-22T05:54:05.445Z,4.00
2019-04-22T05:58:22.561Z,6.40
2019-04-22T06:02:48.885Z,4.90
2019-04-22T06:06:57.250Z,7.13
2019-04-22T06:11:24.114Z,9.80
2019-04-22T06:15:36.205Z,10.00
2019-04-22T06:20:00.639Z,10.03
2019-04-22T06:24:18.724Z,8.50
2019-04-22T06:28:40.776Z,8.50
2019-04-22T06:32:54.197Z,5.73
2019-04-22T06:37:16.066Z,7.03
2019-04-22T06:41:31.700Z,8.87
2019-04-22T06:45:45.010Z,8.53
2019-04-22T06:50:11.885Z,9.33
2019-04-22T06:54:28.170Z,8.63
2019-04-22T06:58:46.324Z,12.03
2019-04-22T07:07:18.658Z,9.83
2019-04-22T07:11:36.743Z,8.30
2019-04-22T07:16:11.563Z,8.97
2019-04-22T07:20:17.537Z,10.17
2019-04-22T07:28:50.617Z,8.90
2019-04-22T07:42:10.734Z,7.97
2019-04-22T07:46:10.934Z,5.03
2019-04-22T07:50:39.482Z,4.00
2019-04-22T07:54:48.163Z,3.87
2019-04-22T07:59:03.733Z,3.47
2019-04-22T08:03:44.345Z,3.70
2019-04-22T08:12:20.247Z,4.00
2019-04-22T08:16:16.546Z,3.70
2019-04-22T08:20:40.985Z,3.40
2019-04-22T08:24:56.132Z,3.10
2019-04-22T08:29:18.309Z,3.30
2019-04-22T08:33:46.689Z,3.57
2019-04-22T08:38:10.342Z,4.03
2019-04-22T08:42:20.418Z,3.47
2019-04-22T08:50:44.395Z,4.40
2019-04-22T08:55:11.387Z,3.90
2019-04-22T08:59:21.900Z,4.97
2019-04-22T09:03:47.085Z,3.80
2019-04-22T09:08:09.068Z,3.70
2019-04-22T09:12:33.152Z,4.00
2019-04-22T09:21:09.043Z,3.77
2019-04-22T09:25:22.210Z,4.93
2019-04-22T09:29:39.996Z,3.93
2019-04-22T09:33:47.669Z,3.63
2019-04-22T09:38:29.561Z,3.10
2019-04-22T09:42:37.263Z,3.30
2019-04-22T09:51:09.746Z,4.10
2019-04-22T09:55:43.088Z,4.23
2019-04-22T09:59:54.096Z,3.70
2019-04-22T10:08:34.840Z,3.23
2019-04-22T10:12:43.131Z,2.77
2019-04-22T10:17:01.151Z,3.10
2019-04-22T10:21:27.267Z,4.07
2019-04-22T10:25:39.783Z,4.73
2019-04-22T10:30:11.326Z,4.00
2019-04-22T10:34:04.766Z,3.50
2019-04-22T10:38:10.347Z,5.10
2019-04-22T10:42:29.513Z,4.93
2019-04-22T10:46:46.372Z,6.40
2019-04-22T10:51:04.544Z,5.23
2019-04-22T10:55:21.555Z,5.77
2019-04-22T10:59:38.554Z,4.90
2019-04-22T11:03:55.290Z,6.03
2019-04-22T11:08:22.598Z,6.67
2019-04-22T11:12:36.188Z,6.17
2019-04-22T11:16:53.418Z,6.03
2019-04-22T11:21:11.536Z,5.53
2019-04-22T11:25:28.245Z,5.00
2019-04-22T11:29:45.865Z,3.93
2019-04-22T11:34:03.305Z,3.70
2019-04-22T11:38:19.921Z,3.83
2019-04-22T11:42:38.533Z,4.30
2019-04-22T11:46:57.203Z,3.50
2019-04-22T11:51:18.006Z,3.73
2019-04-22T11:55:37.006Z,3.50
2019-04-22T11:59:54.685Z,4.00
2019-04-22T12:04:11.803Z,3.40
2019-04-22T12:08:32.146Z,3.13
2019-04-22T12:12:50.104Z,2.80
2019-04-22T12:17:07.940Z,3.27
2019-04-22T12:21:26.684Z,7.43
2019-04-22T12:25:53.667Z,3.95
2019-04-22T12:30:09.108Z,3.85
2019-04-22T12:34:25.835Z,3.67
2019-04-22T12:38:42.800Z,6.42
2019-04-22T12:42:59.806Z,3.40
2019-04-22T12:47:17.893Z,3.02
2019-04-22T12:51:34.848Z,4.97
2019-04-22T12:55:54.915Z,3.75
2019-04-22T13:00:11.630Z,3.20
2019-04-22T13:04:30.147Z,3.67
2019-04-22T13:08:47.770Z,3.22
2019-04-22T13:13:05.031Z,3.35
2019-04-22T13:17:22.973Z,2.60
2019-04-22T13:21:40.673Z,2.72
2019-04-22T13:25:58.866Z,2.58
2019-04-22T13:30:18.617Z,2.45
2019-04-22T13:34:42.277Z,2.47
2019-04-22T13:38:55.224Z,1.95
2019-04-22T13:43:13.181Z,1.85
2019-04-22T13:47:46.461Z,5.17
2019-04-22T13:52:29.305Z,2.05
2019-04-22T13:56:32.831Z,2.12
2019-04-22T14:00:31.574Z,1.87
2019-04-22T14:04:50.644Z,1.80
2019-04-22T14:09:07.589Z,2.87
2019-04-22T14:13:25.781Z,1.95
2019-04-22T14:17:43.338Z,2.02
2019-04-22T14:22:01.637Z,3.40
2019-04-22T14:26:19.689Z,4.20
2019-04-22T14:30:36.951Z,2.83
2019-04-22T14:34:53.636Z,2.75
2019-04-22T14:39:10.413Z,2.22
2019-04-22T14:43:57.847Z,1.95
2019-04-22T14:48:15.669Z,5.37
2019-04-22T14:52:30.718Z,2.47
2019-04-22T14:56:24.233Z,2.05
2019-04-22T15:00:42.390Z,2.00
2019-04-22T15:05:00.460Z,1.90
2019-04-22T15:09:17.152Z,2.10
2019-04-22T15:13:33.648Z,2.60
2019-04-22T15:17:53.052Z,2.30
2019-04-22T15:22:10.458Z,2.42
2019-04-22T15:26:28.480Z,2.20
2019-04-22T15:30:45.724Z,2.00
2019-04-22T15:35:07.112Z,1.93
2019-04-22T15:39:25.056Z,4.70
2019-04-22T15:43:41.776Z,2.50
2019-04-22T15:47:59.816Z,2.33
2019-04-22T15:52:16.811Z,2.53
2019-04-22T15:56:34.885Z,2.43
2019-04-22T16:01:01.824Z,2.63
2019-04-22T16:05:10.708Z,2.73
2019-04-22T16:09:28.889Z,2.10
2019-04-22T16:13:46.554Z,2.30
2019-04-22T16:18:05.290Z,2.63
2019-04-22T16:22:24.983Z,1.97
2019-04-22T16:26:42.588Z,2.17
2019-04-22T16:30:59.678Z,2.40
2019-04-22T16:35:16.784Z,2.40
2019-04-22T16:39:33.845Z,2.60
2019-04-22T16:43:50.779Z,4.53
2019-04-22T16:48:07.810Z,1.90
2019-04-22T16:52:25.601Z,3.23
2019-04-22T16:56:43.865Z,4.73
2019-04-22T17:01:02.979Z,2.47
2019-04-22T17:05:37.956Z,1.50
2019-04-22T17:09:55.498Z,2.17
2019-04-22T17:14:13.284Z,1.40
2019-04-22T17:18:31.086Z,2.10
2019-04-22T17:22:49.431Z,2.63
2019-04-22T17:27:08.537Z,2.00
2019-04-22T17:31:26.813Z,1.97
2019-04-22T17:35:46.408Z,3.80
2019-04-22T17:40:27.757Z,2.37
2019-04-22T17:44:53.221Z,1.47
2019-04-22T17:49:18.898Z,2.87
2019-04-22T17:53:40.473Z,2.60
2019-04-22T17:57:52.510Z,4.43
2019-04-22T18:02:08.624Z,2.00
2019-04-22T18:06:35.044Z,1.50
2019-04-22T18:10:51.044Z,2.83
2019-04-22T18:15:09.996Z,1.10
2019-04-22T18:19:27.763Z,1.37
2019-04-22T18:23:42.150Z,1.67
2019-04-22T18:28:17.365Z,1.60
2019-04-22T18:32:20.512Z,2.07
2019-04-22T18:36:42.819Z,1.77
2019-04-22T18:41:05.024Z,1.50
2019-04-22T18:45:52.011Z,1.70
2019-04-22T18:49:45.364Z,2.37
2019-04-22T18:54:32.223Z,1.67
2019-04-22T18:58:39.429Z,2.00
2019-04-22T19:02:54.142Z,2.23
2019-04-22T19:07:37.782Z,2.30
2019-04-22T19:11:55.643Z,3.37
2019-04-22T19:16:19.592Z,3.10
2019-04-22T19:20:34.368Z,2.27
2019-04-22T19:24:41.887Z,1.80
2019-04-22T19:29:07.182Z,2.30
2019-04-22T19:33:29.031Z,2.23
2019-04-22T19:37:36.749Z,1.83
2019-04-22T19:42:13.676Z,1.40
2019-04-22T19:46:19.489Z,1.20
2019-04-22T19:50:50.437Z,1.50
2019-04-22T19:55:01.866Z,2.17
2019-04-22T19:59:12.337Z,2.20
2019-04-22T20:04:08.003Z,1.73
2019-04-22T20:08:14.538Z,2.27
2019-04-22T20:12:36.756Z,1.97
2019-04-22T20:16:49.119Z,1.93
2019-04-22T20:21:17.830Z,2.30
2019-04-22T20:25:27.926Z,2.10
2019-04-22T20:29:54.347Z,1.93
2019-04-22T20:34:14.395Z,2.30
2019-04-22T20:38:25.910Z,1.57
2019-04-22T20:47:07.599Z,2.37
2019-04-22T20:51:38.987Z,2.10
2019-04-22T20:55:43.535Z,2.13
2019-04-22T20:59:57.650Z,1.80
2019-04-22T21:04:09.101Z,2.20
2019-04-22T21:08:42.073Z,2.67
2019-04-22T21:12:55.803Z,2.33
2019-04-22T21:17:17.314Z,3.03
2019-04-22T21:21:37.686Z,3.27
2019-04-22T21:25:54.287Z,3.73
2019-04-22T21:30:03.299Z,2.80
2019-04-22T21:34:24.843Z,3.43
2019-04-22T21:38:48.293Z,4.90
2019-04-22T21:43:13.681Z,4.33
2019-04-22T21:47:40.406Z,5.20
2019-04-22T21:51:49.511Z,5.50
2019-04-22T21:56:22.392Z,5.40
2019-04-22T22:00:41.213Z,5.37
2019-04-22T22:04:44.385Z,4.77
2019-04-22T22:09:08.959Z,5.63
2019-04-22T22:13:22.761Z,6.00
2019-04-22T22:17:40.040Z,7.53
2019-04-22T22:22:07.849Z,9.93
2019-04-22T22:26:17.315Z,7.50
2019-04-22T22:30:48.077Z,9.80
2019-04-22T22:34:58.767Z,7.47
2019-04-22T22:39:09.983Z,7.83
2019-04-22T22:43:24.928Z,8.40
2019-04-22T22:47:53.398Z,9.57
2019-04-22T22:52:41.259Z,7.30
2019-04-22T22:56:39.067Z,7.03
2019-04-22T23:00:44.384Z,7.83
2019-04-22T23:05:09.763Z,7.37
2019-04-22T23:09:27.040Z,6.83
2019-04-22T23:13:49.726Z,5.93
2019-04-22T23:17:45.590Z,7.23
2019-04-22T23:22:14.499Z,4.07
2019-04-22T23:26:42.058Z,5.27
2019-04-22T23:30:57.000Z,5.13
2019-04-22T23:35:30.697Z,5.13
2019-04-22T23:39:56.502Z,4.77
2019-04-22T23:44:15.980Z,3.60
2019-04-22T23:48:25.211Z,4.07
2019-04-22T23:52:47.923Z,2.93
2019-04-22T23:57:01.629Z,4.30
